createdAt,value
2022-09-28T00:02:44.838Z,100.00
2022-09-28T00:07:46.978Z,100.00
2022-09-28T00:12:53.179Z,100.00
2022-09-28T00:17:54.882Z,99.69
2022-09-28T00:22:56.513Z,98.20
2022-09-28T00:27:58.155Z,96.73
2022-09-28T00:32:59.752Z,97.59
2022-09-28T00:38:02.376Z,97.44
2022-09-28T00:43:20.939Z,97.87
2022-09-28T00:48:23.509Z,97.88
2022-09-28T00:53:30.187Z,95.99
2022-09-28T00:58:35.124Z,95.75
2022-09-28T01:03:37.704Z,96.23
2022-09-28T01:08:40.070Z,95.52
2022-09-28T01:13:43.424Z,95.90
2022-09-28T01:19:06.143Z,96.58
2022-09-28T01:24:37.461Z,97.85
2022-09-28T01:29:55.500Z,97.26
2022-09-28T01:35:00.537Z,97.93
2022-09-28T01:40:04.362Z,100.00
2022-09-28T01:45:12.473Z,100.00
2022-09-28T01:50:20.457Z,100.00
2022-09-28T01:55:32.336Z,100.00
2022-09-28T02:00:39.562Z,100.00
2022-09-28T02:05:43.988Z,100.00
2022-09-28T02:10:54.084Z,100.00
2022-09-28T02:16:06.990Z,100.00
2022-09-28T02:21:17.782Z,100.00
2022-09-28T02:26:22.812Z,100.00
2022-09-28T02:31:24.599Z,100.00
2022-09-28T02:36:28.520Z,100.00
2022-09-28T02:41:57.170Z,100.00
2022-09-28T02:47:14.148Z,100.00
2022-09-28T02:52:33.016Z,100.00
2022-09-28T02:58:12.162Z,100.00
2022-09-28T03:03:25.517Z,100.00
2022-09-28T03:08:59.624Z,100.00
2022-09-28T03:14:05.863Z,100.00
2022-09-28T03:19:30.410Z,100.00
2022-09-28T03:24:32.053Z,100.00
2022-09-28T03:29:34.486Z,100.00
2022-09-28T03:34:40.280Z,100.00
2022-09-28T03:39:42.168Z,100.00
2022-09-28T03:44:43.884Z,100.00
2022-09-28T03:49:46.278Z,100.00
2022-09-28T03:54:49.510Z,100.00
2022-09-28T03:59:51.384Z,100.00
2022-09-28T04:04:53.055Z,100.00
2022-09-28T04:09:55.036Z,100.00
2022-09-28T04:14:56.768Z,100.00
2022-09-28T04:19:58.402Z,100.00
2022-09-28T04:25:15.120Z,100.00
2022-09-28T04:30:17.001Z,100.00
2022-09-28T04:35:20.207Z,100.00
2022-09-28T04:40:22.559Z,100.00
2022-09-28T04:45:27.578Z,100.00
2022-09-28T04:50:34.936Z,100.00
2022-09-28T04:55:59.312Z,100.00
2022-09-28T05:01:05.770Z,100.00
2022-09-28T05:06:42.538Z,100.00
2022-09-28T05:11:44.188Z,100.00
2022-09-28T05:16:51.537Z,100.00
2022-09-28T05:22:04.584Z,100.00
2022-09-28T05:27:12.331Z,100.00
2022-09-28T05:32:14.207Z,100.00
2022-09-28T05:37:24.317Z,100.00
2022-09-28T05:42:25.969Z,100.00
2022-09-28T05:47:27.693Z,100.00
2022-09-28T05:52:29.673Z,100.00
2022-09-28T05:57:31.503Z,100.00
2022-09-28T06:02:33.665Z,100.00
2022-09-28T06:07:35.435Z,100.00
2022-09-28T06:12:37.167Z,100.00
2022-09-28T06:17:44.624Z,100.00
2022-09-28T06:23:15.595Z,100.00
2022-09-28T06:28:17.792Z,100.00
2022-09-28T06:33:19.511Z,100.00
2022-09-28T06:38:21.314Z,100.00
2022-09-28T06:43:24.650Z,100.00
2022-09-28T06:49:01.887Z,100.00
2022-09-28T06:54:25.747Z,100.00
2022-09-28T06:59:42.356Z,100.00
2022-09-28T07:04:45.205Z,99.86
2022-09-28T07:10:11.746Z,100.00
2022-09-28T07:15:36.555Z,100.00
2022-09-28T07:20:50.743Z,100.00
2022-09-28T07:25:54.563Z,100.00
2022-09-28T07:31:14.523Z,100.00
2022-09-28T07:36:42.366Z,100.00
2022-09-28T07:41:44.313Z,100.00
2022-09-28T07:46:46.647Z,100.00
2022-09-28T07:51:59.812Z,100.00
2022-09-28T07:57:01.419Z,100.00
2022-09-28T08:02:12.553Z,100.00
2022-09-28T08:07:21.559Z,100.00
2022-09-28T08:12:31.708Z,97.06
2022-09-28T08:18:02.724Z,95.03
2022-09-28T08:23:09.522Z,94.29
2022-09-28T08:28:13.212Z,94.93
2022-09-28T08:33:23.912Z,95.48
2022-09-28T08:38:43.895Z,97.47
2022-09-28T08:44:13.824Z,96.88
2022-09-28T08:49:45.244Z,98.77
2022-09-28T08:55:19.506Z,99.33
2022-09-28T09:00:49.210Z,100.00
2022-09-28T09:06:22.923Z,100.00
2022-09-28T09:11:57.021Z,100.00
2022-09-28T09:17:18.597Z,100.00
2022-09-28T09:22:59.199Z,99.54
2022-09-28T09:28:35.394Z,99.10
2022-09-28T09:34:19.856Z,100.00
2022-09-28T09:39:43.665Z,100.00
2022-09-28T09:45:17.575Z,100.00
2022-09-28T09:50:54.365Z,100.00
2022-09-28T09:56:02.451Z,100.00
2022-09-28T10:01:34.665Z,100.00
2022-09-28T10:07:04.607Z,99.59
2022-09-28T10:12:10.278Z,94.82
2022-09-28T10:17:18.414Z,95.57
2022-09-28T10:23:02.136Z,99.16
2022-09-28T10:28:07.625Z,98.17
2022-09-28T10:33:31.537Z,100.00
2022-09-28T10:38:34.228Z,100.00
2022-09-28T10:44:10.683Z,98.79
2022-09-28T10:49:22.221Z,99.58
2022-09-28T10:54:30.850Z,95.89
2022-09-28T10:59:40.965Z,96.31
2022-09-28T11:05:03.707Z,98.20
2022-09-28T11:10:21.219Z,100.00
2022-09-28T11:15:31.631Z,100.00
2022-09-28T11:20:35.992Z,100.00
2022-09-28T11:25:41.200Z,100.00
2022-09-28T11:30:51.791Z,95.60
2022-09-28T11:36:12.357Z,80.80
2022-09-28T11:41:46.105Z,72.96
2022-09-28T11:47:04.083Z,85.61
2022-09-28T11:52:14.593Z,91.84
2022-09-28T11:57:22.271Z,92.64
2022-09-28T12:02:31.027Z,89.73
2022-09-28T12:07:49.455Z,86.84
2022-09-28T12:13:16.633Z,82.63
2022-09-28T12:18:24.359Z,80.62
2022-09-28T12:23:38.199Z,79.00
2022-09-28T12:28:45.981Z,86.54
2022-09-28T12:33:50.964Z,87.82
2022-09-28T12:39:30.781Z,84.72
2022-09-28T12:44:36.271Z,84.63
2022-09-28T12:50:37.170Z,85.12
2022-09-28T12:55:30.706Z,85.30
2022-09-28T13:00:57.641Z,85.59
2022-09-28T13:06:05.464Z,85.97
2022-09-28T13:11:52.164Z,88.50
2022-09-28T13:17:20.116Z,89.99
2022-09-28T13:22:49.999Z,88.47
2022-09-28T13:27:56.661Z,87.75
2022-09-28T13:33:01.313Z,86.59
2022-09-28T13:38:17.932Z,85.43
2022-09-28T13:43:31.535Z,85.08
2022-09-28T13:48:55.686Z,83.39
2022-09-28T13:54:38.210Z,82.51
2022-09-28T14:00:22.390Z,83.18
2022-09-28T14:05:25.164Z,84.50
2022-09-28T14:10:54.229Z,83.81
2022-09-28T14:16:18.541Z,85.20
2022-09-28T14:21:46.046Z,86.60
2022-09-28T14:27:03.473Z,87.46
2022-09-28T14:32:22.435Z,91.66
2022-09-28T14:37:59.170Z,92.87
2022-09-28T14:43:24.369Z,91.06
2022-09-28T14:48:48.887Z,84.22
2022-09-28T14:53:51.816Z,85.71
2022-09-28T14:58:58.239Z,85.32
2022-09-28T15:04:04.769Z,84.35
2022-09-28T15:09:06.435Z,85.25
2022-09-28T15:14:10.695Z,84.43
2022-09-28T15:19:28.476Z,83.05
2022-09-28T15:24:31.644Z,84.18
2022-09-28T15:29:33.559Z,84.44
2022-09-28T15:34:52.185Z,84.33
2022-09-28T15:39:56.401Z,83.71
2022-09-28T15:45:13.875Z,84.31
2022-09-28T15:50:22.036Z,84.69
2022-09-28T15:55:32.743Z,84.86
2022-09-28T16:00:35.037Z,85.17
2022-09-28T16:05:46.706Z,86.21
2022-09-28T16:10:53.379Z,86.68
2022-09-28T16:15:59.729Z,86.15
2022-09-28T16:21:20.141Z,86.45
2022-09-28T16:26:38.985Z,87.34
2022-09-28T16:31:43.818Z,88.62
2022-09-28T16:36:48.126Z,89.26
2022-09-28T16:41:56.093Z,91.69
2022-09-28T16:47:00.684Z,92.63
2022-09-28T16:52:02.429Z,95.79
2022-09-28T16:57:06.806Z,97.40
2022-09-28T17:02:44.975Z,96.94
2022-09-28T17:07:42.916Z,97.64
2022-09-28T17:12:44.831Z,98.50
2022-09-28T17:17:47.161Z,97.38
2022-09-28T17:22:50.173Z,97.86
2022-09-28T17:27:54.585Z,97.26
2022-09-28T17:32:56.225Z,97.45
2022-09-28T17:37:57.888Z,98.29
2022-09-28T17:43:00.531Z,98.77
2022-09-28T17:48:02.304Z,99.37
2022-09-28T17:53:06.244Z,100.00
2022-09-28T17:58:22.155Z,100.00
2022-09-28T18:03:25.578Z,100.00
2022-09-28T18:08:27.245Z,100.00
2022-09-28T18:13:29.014Z,100.00
2022-09-28T18:18:31.142Z,100.00
2022-09-28T18:23:36.896Z,100.00
2022-09-28T18:28:38.589Z,100.00
2022-09-28T18:33:41.152Z,100.00
2022-09-28T18:38:42.917Z,100.00
2022-09-28T18:43:50.878Z,100.00
2022-09-28T18:48:52.535Z,100.00
2022-09-28T18:53:54.247Z,100.00
2022-09-28T18:58:58.382Z,100.00
2022-09-28T19:04:01.742Z,100.00
2022-09-28T19:09:03.780Z,100.00
2022-09-28T19:14:05.461Z,100.00
2022-09-28T19:19:07.441Z,100.00
2022-09-28T19:24:13.291Z,100.00
2022-09-28T19:29:15.997Z,100.00
2022-09-28T19:34:18.529Z,100.00
2022-09-28T19:39:20.330Z,100.00
2022-09-28T19:44:25.860Z,100.00
2022-09-28T19:49:29.894Z,100.00
2022-09-28T19:54:36.357Z,100.00
2022-09-28T19:59:39.068Z,100.00
2022-09-28T20:04:40.770Z,100.00
2022-09-28T20:09:42.479Z,100.00
2022-09-28T20:14:44.179Z,100.00
2022-09-28T20:19:45.837Z,100.00
2022-09-28T20:24:47.517Z,100.00
2022-09-28T20:29:49.557Z,100.00
2022-09-28T20:34:51.207Z,100.00
2022-09-28T20:39:53.388Z,100.00
2022-09-28T20:44:55.032Z,100.00
2022-09-28T20:49:56.853Z,100.00
2022-09-28T20:54:58.500Z,100.00
2022-09-28T21:00:00.316Z,100.00
2022-09-28T21:05:01.960Z,100.00
2022-09-28T21:10:03.900Z,100.00
2022-09-28T21:15:06.300Z,100.00
2022-09-28T21:20:08.621Z,100.00
2022-09-28T21:25:10.273Z,100.00
2022-09-28T21:30:12.485Z,100.00
2022-09-28T21:35:14.150Z,100.00
2022-09-28T21:40:15.888Z,100.00
2022-09-28T21:45:17.572Z,100.00
2022-09-28T21:50:24.852Z,100.00
2022-09-28T21:55:26.491Z,100.00
2022-09-28T22:00:28.139Z,100.00
2022-09-28T22:05:30.274Z,100.00
2022-09-28T22:10:31.929Z,100.00
2022-09-28T22:15:33.649Z,100.00
2022-09-28T22:20:35.344Z,100.00
2022-09-28T22:25:36.992Z,100.00
2022-09-28T22:30:38.658Z,100.00
2022-09-28T22:35:40.326Z,100.00
2022-09-28T22:40:47.070Z,100.00
2022-09-28T22:45:49.467Z,100.00
2022-09-28T22:50:51.694Z,100.00
2022-09-28T22:55:53.383Z,100.00
2022-09-28T23:00:57.908Z,100.00
2022-09-28T23:05:59.614Z,100.00
2022-09-28T23:11:01.657Z,100.00
2022-09-28T23:16:07.466Z,100.00
2022-09-28T23:21:18.148Z,100.00
2022-09-28T23:26:23.121Z,100.00
2022-09-28T23:31:28.473Z,100.00
2022-09-28T23:36:31.145Z,100.00
2022-09-28T23:41:32.795Z,100.00
2022-09-28T23:46:34.478Z,100.00
2022-09-28T23:51:38.132Z,100.00
2022-09-28T23:56:39.870Z,100.00
